sensor_id;sensor_type;location;lat;lon;timestamp;temperature;humidity
46492;DHT22;32206;51.446;6.792;2022-10-31T00:00:59;16.00;73.00
46492;DHT22;32206;51.446;6.792;2022-10-31T00:03:25;15.90;75.80
46492;DHT22;32206;51.446;6.792;2022-10-31T00:05:52;15.90;76.30
46492;DHT22;32206;51.446;6.792;2022-10-31T00:08:18;15.90;76.50
46492;DHT22;32206;51.446;6.792;2022-10-31T00:10:45;15.90;78.90
46492;DHT22;32206;51.446;6.792;2022-10-31T00:13:12;15.80;80.70
46492;DHT22;32206;51.446;6.792;2022-10-31T00:15:38;15.80;83.10
46492;DHT22;32206;51.446;6.792;2022-10-31T00:18:06;15.80;85.00
46492;DHT22;32206;51.446;6.792;2022-10-31T00:20:32;15.70;85.00
46492;DHT22;32206;51.446;6.792;2022-10-31T00:22:58;15.70;84.60
46492;DHT22;32206;51.446;6.792;2022-10-31T00:25:25;15.70;86.60
46492;DHT22;32206;51.446;6.792;2022-10-31T00:27:50;15.60;86.40
46492;DHT22;32206;51.446;6.792;2022-10-31T00:30:16;15.60;88.40
46492;DHT22;32206;51.446;6.792;2022-10-31T00:32:42;15.60;90.10
46492;DHT22;32206;51.446;6.792;2022-10-31T00:35:07;15.50;90.80
46492;DHT22;32206;51.446;6.792;2022-10-31T00:37:33;15.50;91.60
46492;DHT22;32206;51.446;6.792;2022-10-31T00:39:59;15.50;91.70
46492;DHT22;32206;51.446;6.792;2022-10-31T00:42:24;15.80;92.80
46492;DHT22;32206;51.446;6.792;2022-10-31T00:44:50;15.70;92.90
46492;DHT22;32206;51.446;6.792;2022-10-31T00:47:16;15.70;93.00
46492;DHT22;32206;51.446;6.792;2022-10-31T00:49:41;15.40;92.90
46492;DHT22;32206;51.446;6.792;2022-10-31T00:52:07;15.40;93.40
46492;DHT22;32206;51.446;6.792;2022-10-31T00:54:32;15.40;93.60
46492;DHT22;32206;51.446;6.792;2022-10-31T00:56:58;15.30;94.30
46492;DHT22;32206;51.446;6.792;2022-10-31T00:59:24;15.30;95.00
46492;DHT22;32206;51.446;6.792;2022-10-31T01:01:49;15.40;96.00
46492;DHT22;32206;51.446;6.792;2022-10-31T01:04:15;15.40;95.50
46492;DHT22;32206;51.446;6.792;2022-10-31T01:06:41;15.30;94.60
46492;DHT22;32206;51.446;6.792;2022-10-31T01:09:07;15.20;96.20
46492;DHT22;32206;51.446;6.792;2022-10-31T01:11:33;15.20;98.50
46492;DHT22;32206;51.446;6.792;2022-10-31T01:13:59;15.10;98.70
46492;DHT22;32206;51.446;6.792;2022-10-31T01:16:26;15.20;99.90
46492;DHT22;32206;51.446;6.792;2022-10-31T01:18:52;15.30;99.80
46492;DHT22;32206;51.446;6.792;2022-10-31T01:21:20;15.20;99.60
46492;DHT22;32206;51.446;6.792;2022-10-31T01:23:46;15.20;99.50
46492;DHT22;32206;51.446;6.792;2022-10-31T01:26:13;15.20;98.90
46492;DHT22;32206;51.446;6.792;2022-10-31T01:28:43;15.10;99.60
46492;DHT22;32206;51.446;6.792;2022-10-31T01:31:09;15.10;99.90
46492;DHT22;32206;51.446;6.792;2022-10-31T01:33:35;15.00;99.90
46492;DHT22;32206;51.446;6.792;2022-10-31T01:36:01;15.00;99.90
46492;DHT22;32206;51.446;6.792;2022-10-31T01:38:36;14.90;99.90
46492;DHT22;32206;51.446;6.792;2022-10-31T01:41:01;15.20;99.90
46492;DHT22;32206;51.446;6.792;2022-10-31T01:43:55;14.90;99.90
46492;DHT22;32206;51.446;6.792;2022-10-31T01:46:34;14.90;99.90
46492;DHT22;32206;51.446;6.792;2022-10-31T01:49:09;14.90;99.90
46492;DHT22;32206;51.446;6.792;2022-10-31T01:51:38;14.90;99.90
46492;DHT22;32206;51.446;6.792;2022-10-31T01:54:10;14.90;99.90
46492;DHT22;32206;51.446;6.792;2022-10-31T01:56:40;14.90;99.90
46492;DHT22;32206;51.446;6.792;2022-10-31T01:59:11;15.00;99.90
46492;DHT22;32206;51.446;6.792;2022-10-31T02:01:38;14.80;99.90
46492;DHT22;32206;51.446;6.792;2022-10-31T02:04:04;14.80;99.90
46492;DHT22;32206;51.446;6.792;2022-10-31T02:07:05;14.60;99.90
46492;DHT22;32206;51.446;6.792;2022-10-31T02:09:31;14.70;99.90
46492;DHT22;32206;51.446;6.792;2022-10-31T02:11:59;14.70;99.90
46492;DHT22;32206;51.446;6.792;2022-10-31T02:14:27;14.70;99.90
46492;DHT22;32206;51.446;6.792;2022-10-31T02:16:56;14.60;99.90
46492;DHT22;32206;51.446;6.792;2022-10-31T02:22:40;14.50;99.90
46492;DHT22;32206;51.446;6.792;2022-10-31T02:31:00;14.50;99.90
46492;DHT22;32206;51.446;6.792;2022-10-31T02:33:36;14.50;99.90
46492;DHT22;32206;51.446;6.792;2022-10-31T02:36:18;14.40;99.90
46492;DHT22;32206;51.446;6.792;2022-10-31T02:44:44;14.40;99.90
46492;DHT22;32206;51.446;6.792;2022-10-31T02:47:18;14.30;99.90
46492;DHT22;32206;51.446;6.792;2022-10-31T02:49:50;14.30;99.90
46492;DHT22;32206;51.446;6.792;2022-10-31T02:52:25;14.20;99.90
46492;DHT22;32206;51.446;6.792;2022-10-31T02:54:51;14.30;99.90
46492;DHT22;32206;51.446;6.792;2022-10-31T02:57:21;14.20;99.90
46492;DHT22;32206;51.446;6.792;2022-10-31T02:59:50;14.20;99.90
46492;DHT22;32206;51.446;6.792;2022-10-31T03:02:40;14.10;99.90
46492;DHT22;32206;51.446;6.792;2022-10-31T03:07:59;14.10;99.90
46492;DHT22;32206;51.446;6.792;2022-10-31T03:10:35;13.80;99.90
46492;DHT22;32206;51.446;6.792;2022-10-31T03:13:19;13.90;99.90
46492;DHT22;32206;51.446;6.792;2022-10-31T03:15:50;13.90;99.90
46492;DHT22;32206;51.446;6.792;2022-10-31T03:18:34;14.00;99.90
46492;DHT22;32206;51.446;6.792;2022-10-31T03:21:16;13.90;99.90
46492;DHT22;32206;51.446;6.792;2022-10-31T03:23:45;13.80;99.90
46492;DHT22;32206;51.446;6.792;2022-10-31T03:26:13;13.80;99.90
46492;DHT22;32206;51.446;6.792;2022-10-31T03:28:45;13.80;99.90
46492;DHT22;32206;51.446;6.792;2022-10-31T03:31:13;13.70;99.90
46492;DHT22;32206;51.446;6.792;2022-10-31T03:33:42;13.70;99.90
46492;DHT22;32206;51.446;6.792;2022-10-31T03:36:11;13.70;99.90
46492;DHT22;32206;51.446;6.792;2022-10-31T03:38:38;13.60;99.90
46492;DHT22;32206;51.446;6.792;2022-10-31T03:41:06;13.70;99.90
46492;DHT22;32206;51.446;6.792;2022-10-31T03:43:42;13.60;99.90
46492;DHT22;32206;51.446;6.792;2022-10-31T03:46:11;13.60;99.90
46492;DHT22;32206;51.446;6.792;2022-10-31T03:48:37;13.60;99.90
46492;DHT22;32206;51.446;6.792;2022-10-31T03:51:13;13.50;99.90
46492;DHT22;32206;51.446;6.792;2022-10-31T03:56:52;13.50;99.90
46492;DHT22;32206;51.446;6.792;2022-10-31T03:59:26;13.50;99.90
46492;DHT22;32206;51.446;6.792;2022-10-31T04:01:59;13.40;99.90
46492;DHT22;32206;51.446;6.792;2022-10-31T04:04:27;13.40;99.90
46492;DHT22;32206;51.446;6.792;2022-10-31T04:06:56;13.40;99.90
46492;DHT22;32206;51.446;6.792;2022-10-31T04:09:25;13.40;99.90
46492;DHT22;32206;51.446;6.792;2022-10-31T04:11:53;13.40;99.90
46492;DHT22;32206;51.446;6.792;2022-10-31T04:14:21;13.60;99.90
46492;DHT22;32206;51.446;6.792;2022-10-31T04:16:47;13.40;99.90
46492;DHT22;32206;51.446;6.792;2022-10-31T04:19:14;13.40;99.90
46492;DHT22;32206;51.446;6.792;2022-10-31T04:21:40;13.40;99.90
46492;DHT22;32206;51.446;6.792;2022-10-31T04:24:09;13.30;99.90
46492;DHT22;32206;51.446;6.792;2022-10-31T04:26:34;13.30;99.90
46492;DHT22;32206;51.446;6.792;2022-10-31T04:29:00;13.30;99.90
46492;DHT22;32206;51.446;6.792;2022-10-31T04:31:26;13.30;99.90
46492;DHT22;32206;51.446;6.792;2022-10-31T04:33:52;13.40;99.90
46492;DHT22;32206;51.446;6.792;2022-10-31T04:36:17;13.60;99.90
46492;DHT22;32206;51.446;6.792;2022-10-31T04:38:43;13.40;99.90
46492;DHT22;32206;51.446;6.792;2022-10-31T04:41:11;13.40;99.90
46492;DHT22;32206;51.446;6.792;2022-10-31T04:43:37;13.40;99.90
46492;DHT22;32206;51.446;6.792;2022-10-31T04:46:03;13.40;99.90
46492;DHT22;32206;51.446;6.792;2022-10-31T04:48:29;13.30;99.90
46492;DHT22;32206;51.446;6.792;2022-10-31T04:50:59;13.30;99.90
46492;DHT22;32206;51.446;6.792;2022-10-31T04:53:25;13.30;99.90
46492;DHT22;32206;51.446;6.792;2022-10-31T04:55:51;13.30;99.90
46492;DHT22;32206;51.446;6.792;2022-10-31T04:58:17;13.30;99.90
46492;DHT22;32206;51.446;6.792;2022-10-31T05:00:42;13.20;99.90
46492;DHT22;32206;51.446;6.792;2022-10-31T05:03:08;13.20;99.90
46492;DHT22;32206;51.446;6.792;2022-10-31T05:05:33;13.20;99.90
46492;DHT22;32206;51.446;6.792;2022-10-31T05:07:59;13.10;99.90
46492;DHT22;32206;51.446;6.792;2022-10-31T05:10:27;13.10;99.90
46492;DHT22;32206;51.446;6.792;2022-10-31T05:12:56;13.00;99.90
46492;DHT22;32206;51.446;6.792;2022-10-31T05:15:23;13.00;99.90
46492;DHT22;32206;51.446;6.792;2022-10-31T05:17:49;13.20;99.90
46492;DHT22;32206;51.446;6.792;2022-10-31T05:20:17;13.10;99.90
46492;DHT22;32206;51.446;6.792;2022-10-31T05:22:47;13.10;99.90
46492;DHT22;32206;51.446;6.792;2022-10-31T05:25:13;13.10;99.90
46492;DHT22;32206;51.446;6.792;2022-10-31T05:27:40;13.10;99.90
46492;DHT22;32206;51.446;6.792;2022-10-31T05:30:07;13.10;99.90
46492;DHT22;32206;51.446;6.792;2022-10-31T05:32:39;13.10;99.90
46492;DHT22;32206;51.446;6.792;2022-10-31T05:35:10;13.10;99.90
46492;DHT22;32206;51.446;6.792;2022-10-31T05:37:37;13.10;99.90
46492;DHT22;32206;51.446;6.792;2022-10-31T05:40:04;13.10;99.90
46492;DHT22;32206;51.446;6.792;2022-10-31T05:42:29;13.00;99.90
46492;DHT22;32206;51.446;6.792;2022-10-31T05:44:55;13.10;99.90
46492;DHT22;32206;51.446;6.792;2022-10-31T05:47:21;13.00;99.90
46492;DHT22;32206;51.446;6.792;2022-10-31T05:49:46;13.00;99.90
46492;DHT22;32206;51.446;6.792;2022-10-31T05:52:12;13.00;99.90
46492;DHT22;32206;51.446;6.792;2022-10-31T05:54:37;12.90;99.90
46492;DHT22;32206;51.446;6.792;2022-10-31T05:57:03;12.90;99.90
46492;DHT22;32206;51.446;6.792;2022-10-31T05:59:29;13.00;99.90
46492;DHT22;32206;51.446;6.792;2022-10-31T06:01:54;12.90;99.90
46492;DHT22;32206;51.446;6.792;2022-10-31T06:04:20;12.90;99.90
46492;DHT22;32206;51.446;6.792;2022-10-31T06:06:45;12.90;99.90
46492;DHT22;32206;51.446;6.792;2022-10-31T06:09:11;12.90;99.90
46492;DHT22;32206;51.446;6.792;2022-10-31T06:11:37;12.90;99.90
46492;DHT22;32206;51.446;6.792;2022-10-31T06:14:03;12.90;99.90
46492;DHT22;32206;51.446;6.792;2022-10-31T06:16:29;12.90;99.90
46492;DHT22;32206;51.446;6.792;2022-10-31T06:18:54;13.00;99.90
46492;DHT22;32206;51.446;6.792;2022-10-31T06:21:20;12.90;99.90
46492;DHT22;32206;51.446;6.792;2022-10-31T06:23:45;13.10;99.90
46492;DHT22;32206;51.446;6.792;2022-10-31T06:26:11;12.90;99.90
46492;DHT22;32206;51.446;6.792;2022-10-31T06:28:36;12.90;99.90
46492;DHT22;32206;51.446;6.792;2022-10-31T06:31:02;12.90;99.90
46492;DHT22;32206;51.446;6.792;2022-10-31T06:33:28;12.80;99.90
46492;DHT22;32206;51.446;6.792;2022-10-31T06:35:53;12.80;99.90
46492;DHT22;32206;51.446;6.792;2022-10-31T06:38:19;12.80;99.90
46492;DHT22;32206;51.446;6.792;2022-10-31T06:40:44;13.00;99.90
46492;DHT22;32206;51.446;6.792;2022-10-31T06:43:10;12.80;99.90
46492;DHT22;32206;51.446;6.792;2022-10-31T06:45:37;12.80;99.90
46492;DHT22;32206;51.446;6.792;2022-10-31T06:48:03;13.00;99.90
46492;DHT22;32206;51.446;6.792;2022-10-31T06:50:29;12.80;99.90
46492;DHT22;32206;51.446;6.792;2022-10-31T06:52:56;12.70;99.90
46492;DHT22;32206;51.446;6.792;2022-10-31T06:55:23;12.70;99.90
46492;DHT22;32206;51.446;6.792;2022-10-31T06:58:00;12.70;99.90
46492;DHT22;32206;51.446;6.792;2022-10-31T07:00:27;12.80;99.90
46492;DHT22;32206;51.446;6.792;2022-10-31T07:02:55;12.80;99.90
46492;DHT22;32206;51.446;6.792;2022-10-31T07:05:21;12.80;99.90
46492;DHT22;32206;51.446;6.792;2022-10-31T07:07:46;12.80;99.90
46492;DHT22;32206;51.446;6.792;2022-10-31T07:10:12;12.80;99.90
46492;DHT22;32206;51.446;6.792;2022-10-31T07:12:37;12.90;99.90
46492;DHT22;32206;51.446;6.792;2022-10-31T07:15:04;12.90;99.90
46492;DHT22;32206;51.446;6.792;2022-10-31T07:17:29;12.90;99.90
46492;DHT22;32206;51.446;6.792;2022-10-31T07:19:56;13.30;99.90
46492;DHT22;32206;51.446;6.792;2022-10-31T07:22:21;13.00;99.90
46492;DHT22;32206;51.446;6.792;2022-10-31T07:24:47;13.20;99.90
46492;DHT22;32206;51.446;6.792;2022-10-31T07:27:12;13.00;99.90
46492;DHT22;32206;51.446;6.792;2022-10-31T07:29:38;12.90;99.90
46492;DHT22;32206;51.446;6.792;2022-10-31T07:32:04;13.00;99.90
46492;DHT22;32206;51.446;6.792;2022-10-31T07:34:29;13.00;99.90
46492;DHT22;32206;51.446;6.792;2022-10-31T07:36:55;13.00;99.90
46492;DHT22;32206;51.446;6.792;2022-10-31T07:39:21;13.00;99.90
46492;DHT22;32206;51.446;6.792;2022-10-31T07:41:46;13.00;99.90
46492;DHT22;32206;51.446;6.792;2022-10-31T07:44:12;13.10;99.90
46492;DHT22;32206;51.446;6.792;2022-10-31T07:46:37;13.10;99.90
46492;DHT22;32206;51.446;6.792;2022-10-31T07:49:03;13.60;99.90
46492;DHT22;32206;51.446;6.792;2022-10-31T07:51:29;13.20;99.90
46492;DHT22;32206;51.446;6.792;2022-10-31T07:53:54;13.20;99.90
46492;DHT22;32206;51.446;6.792;2022-10-31T07:56:20;13.30;99.90
46492;DHT22;32206;51.446;6.792;2022-10-31T07:58:46;13.50;99.90
46492;DHT22;32206;51.446;6.792;2022-10-31T08:01:14;13.40;99.90
46492;DHT22;32206;51.446;6.792;2022-10-31T08:03:39;13.40;99.90
46492;DHT22;32206;51.446;6.792;2022-10-31T08:06:05;13.40;99.90
46492;DHT22;32206;51.446;6.792;2022-10-31T08:08:31;13.40;99.90
46492;DHT22;32206;51.446;6.792;2022-10-31T08:10:58;13.30;99.90
46492;DHT22;32206;51.446;6.792;2022-10-31T08:13:23;13.40;99.90
46492;DHT22;32206;51.446;6.792;2022-10-31T08:15:49;13.70;99.90
46492;DHT22;32206;51.446;6.792;2022-10-31T08:18:17;13.60;99.90
46492;DHT22;32206;51.446;6.792;2022-10-31T08:20:43;13.90;99.90
46492;DHT22;32206;51.446;6.792;2022-10-31T08:23:10;13.70;99.90
46492;DHT22;32206;51.446;6.792;2022-10-31T08:25:36;13.80;99.90
46492;DHT22;32206;51.446;6.792;2022-10-31T08:28:02;13.80;99.90
46492;DHT22;32206;51.446;6.792;2022-10-31T08:30:30;13.90;99.90
46492;DHT22;32206;51.446;6.792;2022-10-31T08:33:03;13.90;99.90
46492;DHT22;32206;51.446;6.792;2022-10-31T08:35:29;14.00;99.90
46492;DHT22;32206;51.446;6.792;2022-10-31T08:37:56;14.00;99.90
46492;DHT22;32206;51.446;6.792;2022-10-31T08:40:23;14.20;99.90
46492;DHT22;32206;51.446;6.792;2022-10-31T08:42:59;14.20;99.90
46492;DHT22;32206;51.446;6.792;2022-10-31T08:45:25;14.20;99.90
46492;DHT22;32206;51.446;6.792;2022-10-31T08:47:51;14.50;99.90
46492;DHT22;32206;51.446;6.792;2022-10-31T08:50:17;14.50;99.90
46492;DHT22;32206;51.446;6.792;2022-10-31T08:52:42;14.60;99.90
46492;DHT22;32206;51.446;6.792;2022-10-31T08:55:08;14.60;99.90
46492;DHT22;32206;51.446;6.792;2022-10-31T08:57:34;14.80;99.90
46492;DHT22;32206;51.446;6.792;2022-10-31T08:59:59;14.80;99.90
46492;DHT22;32206;51.446;6.792;2022-10-31T09:02:25;14.80;99.90
46492;DHT22;32206;51.446;6.792;2022-10-31T09:04:51;15.20;99.90
46492;DHT22;32206;51.446;6.792;2022-10-31T09:07:16;15.00;99.90
46492;DHT22;32206;51.446;6.792;2022-10-31T09:09:42;15.10;99.90
46492;DHT22;32206;51.446;6.792;2022-10-31T09:12:07;15.10;99.90
46492;DHT22;32206;51.446;6.792;2022-10-31T09:14:33;15.00;99.90
46492;DHT22;32206;51.446;6.792;2022-10-31T09:16:59;15.10;99.90
46492;DHT22;32206;51.446;6.792;2022-10-31T09:19:24;15.20;99.90
46492;DHT22;32206;51.446;6.792;2022-10-31T09:21:53;15.30;99.90
46492;DHT22;32206;51.446;6.792;2022-10-31T09:24:19;15.80;99.90
46492;DHT22;32206;51.446;6.792;2022-10-31T09:26:45;15.50;99.90
46492;DHT22;32206;51.446;6.792;2022-10-31T09:29:11;15.60;99.90
46492;DHT22;32206;51.446;6.792;2022-10-31T09:31:36;15.60;99.90
46492;DHT22;32206;51.446;6.792;2022-10-31T09:34:02;15.60;99.90
46492;DHT22;32206;51.446;6.792;2022-10-31T09:36:28;15.60;99.90
46492;DHT22;32206;51.446;6.792;2022-10-31T09:38:53;15.60;99.90
46492;DHT22;32206;51.446;6.792;2022-10-31T09:41:21;15.50;99.90
46492;DHT22;32206;51.446;6.792;2022-10-31T09:45:00;15.60;99.90
46492;DHT22;32206;51.446;6.792;2022-10-31T09:52:28;15.70;99.90
46492;DHT22;32206;51.446;6.792;2022-10-31T09:55:08;15.80;99.90
46492;DHT22;32206;51.446;6.792;2022-10-31T09:57:36;15.80;99.90
46492;DHT22;32206;51.446;6.792;2022-10-31T10:00:06;15.90;99.90
46492;DHT22;32206;51.446;6.792;2022-10-31T10:02:49;16.00;99.90
46492;DHT22;32206;51.446;6.792;2022-10-31T10:05:25;16.10;99.90
46492;DHT22;32206;51.446;6.792;2022-10-31T10:22:08;17.10;98.60
46492;DHT22;32206;51.446;6.792;2022-10-31T10:30:17;17.30;97.40
46492;DHT22;32206;51.446;6.792;2022-10-31T10:32:48;17.30;97.70
46492;DHT22;32206;51.446;6.792;2022-10-31T10:38:01;17.50;95.80
46492;DHT22;32206;51.446;6.792;2022-10-31T10:40:29;17.60;96.00
46492;DHT22;32206;51.446;6.792;2022-10-31T10:54:45;17.80;94.00
46492;DHT22;32206;51.446;6.792;2022-10-31T10:59:47;18.00;92.40
46492;DHT22;32206;51.446;6.792;2022-10-31T11:02:32;18.20;92.40
46492;DHT22;32206;51.446;6.792;2022-10-31T11:05:01;18.40;91.20
46492;DHT22;32206;51.446;6.792;2022-10-31T11:07:38;18.60;90.60
46492;DHT22;32206;51.446;6.792;2022-10-31T11:10:06;18.80;87.10
46492;DHT22;32206;51.446;6.792;2022-10-31T11:12:39;18.80;85.70
46492;DHT22;32206;51.446;6.792;2022-10-31T11:15:19;18.90;82.60
46492;DHT22;32206;51.446;6.792;2022-10-31T11:17:49;19.00;82.30
46492;DHT22;32206;51.446;6.792;2022-10-31T11:22:46;19.00;84.70
46492;DHT22;32206;51.446;6.792;2022-10-31T11:25:24;19.10;40.00
46492;DHT22;32206;51.446;6.792;2022-10-31T11:28:05;19.20;29.10
46492;DHT22;32206;51.446;6.792;2022-10-31T11:30:36;19.40;15.20
46492;DHT22;32206;51.446;6.792;2022-10-31T11:33:21;19.50;9.80
46492;DHT22;32206;51.446;6.792;2022-10-31T11:35:48;19.60;1.00
46492;DHT22;32206;51.446;6.792;2022-10-31T11:38:19;19.70;1.00
46492;DHT22;32206;51.446;6.792;2022-10-31T11:41:15;19.60;1.00
46492;DHT22;32206;51.446;6.792;2022-10-31T11:43:55;19.60;1.00
46492;DHT22;32206;51.446;6.792;2022-10-31T11:46:34;19.60;1.00
46492;DHT22;32206;51.446;6.792;2022-10-31T11:49:00;19.60;1.00
46492;DHT22;32206;51.446;6.792;2022-10-31T11:51:33;19.60;1.00
46492;DHT22;32206;51.446;6.792;2022-10-31T11:53:59;19.50;6.00
46492;DHT22;32206;51.446;6.792;2022-10-31T11:56:37;19.60;2.40
46492;DHT22;32206;51.446;6.792;2022-10-31T11:59:05;19.70;4.90
46492;DHT22;32206;51.446;6.792;2022-10-31T12:01:32;19.70;1.00
46492;DHT22;32206;51.446;6.792;2022-10-31T12:06:34;19.60;1.00
46492;DHT22;32206;51.446;6.792;2022-10-31T12:09:00;19.60;1.00
46492;DHT22;32206;51.446;6.792;2022-10-31T12:14:01;19.90;1.00
46492;DHT22;32206;51.446;6.792;2022-10-31T12:19:41;19.90;1.00
46492;DHT22;32206;51.446;6.792;2022-10-31T12:30:19;20.40;1.00
46492;DHT22;32206;51.446;6.792;2022-10-31T12:41:39;20.80;1.00
46492;DHT22;32206;51.446;6.792;2022-10-31T12:47:18;21.30;1.00
46492;DHT22;32206;51.446;6.792;2022-10-31T13:00:43;22.60;99.90
46492;DHT22;32206;51.446;6.792;2022-10-31T13:04:04;22.60;90.10
46492;DHT22;32206;51.446;6.792;2022-10-31T13:06:35;22.70;99.90
46492;DHT22;32206;51.446;6.792;2022-10-31T13:09:08;23.00;1.00
46492;DHT22;32206;51.446;6.792;2022-10-31T13:11:40;23.40;99.90
46492;DHT22;32206;51.446;6.792;2022-10-31T13:16:40;23.70;99.90
46492;DHT22;32206;51.446;6.792;2022-10-31T13:19:30;23.70;99.90
46492;DHT22;32206;51.446;6.792;2022-10-31T13:22:10;23.90;1.00
46492;DHT22;32206;51.446;6.792;2022-10-31T13:24:53;23.80;99.90
46492;DHT22;32206;51.446;6.792;2022-10-31T13:27:23;23.90;99.90
46492;DHT22;32206;51.446;6.792;2022-10-31T13:33:01;23.80;99.90
46492;DHT22;32206;51.446;6.792;2022-10-31T13:38:21;23.30;1.00
46492;DHT22;32206;51.446;6.792;2022-10-31T13:46:00;22.60;99.90
46492;DHT22;32206;51.446;6.792;2022-10-31T13:53:34;22.40;99.90
46492;DHT22;32206;51.446;6.792;2022-10-31T13:56:21;22.30;1.00
46492;DHT22;32206;51.446;6.792;2022-10-31T14:01:24;21.90;1.00
46492;DHT22;32206;51.446;6.792;2022-10-31T14:04:02;22.00;14.10
46492;DHT22;32206;51.446;6.792;2022-10-31T14:06:37;21.90;40.50
46492;DHT22;32206;51.446;6.792;2022-10-31T14:09:04;21.80;99.90
46492;DHT22;32206;51.446;6.792;2022-10-31T14:11:33;21.80;99.90
46492;DHT22;32206;51.446;6.792;2022-10-31T14:14:00;21.80;99.90
46492;DHT22;32206;51.446;6.792;2022-10-31T14:16:30;21.70;99.90
46492;DHT22;32206;51.446;6.792;2022-10-31T14:19:17;21.70;1.00
46492;DHT22;32206;51.446;6.792;2022-10-31T14:21:45;21.70;1.00
46492;DHT22;32206;51.446;6.792;2022-10-31T14:27:00;21.60;95.70
46492;DHT22;32206;51.446;6.792;2022-10-31T14:29:32;21.90;99.90
46492;DHT22;32206;51.446;6.792;2022-10-31T14:34:58;22.10;99.90
46492;DHT22;32206;51.446;6.792;2022-10-31T14:43:10;22.10;1.00
46492;DHT22;32206;51.446;6.792;2022-10-31T14:51:19;21.70;1.00
46492;DHT22;32206;51.446;6.792;2022-10-31T14:53:52;21.60;99.90
46492;DHT22;32206;51.446;6.792;2022-10-31T14:56:46;21.60;28.80
46492;DHT22;32206;51.446;6.792;2022-10-31T14:59:15;21.50;99.90
46492;DHT22;32206;51.446;6.792;2022-10-31T15:01:58;21.50;1.00
46492;DHT22;32206;51.446;6.792;2022-10-31T15:04:29;21.60;1.00
46492;DHT22;32206;51.446;6.792;2022-10-31T15:07:20;21.60;99.90
46492;DHT22;32206;51.446;6.792;2022-10-31T15:10:03;21.50;1.00
46492;DHT22;32206;51.446;6.792;2022-10-31T15:12:32;21.40;1.00
46492;DHT22;32206;51.446;6.792;2022-10-31T15:15:25;21.30;99.90
46492;DHT22;32206;51.446;6.792;2022-10-31T15:17:59;21.20;99.90
46492;DHT22;32206;51.446;6.792;2022-10-31T15:20:27;21.20;99.90
46492;DHT22;32206;51.446;6.792;2022-10-31T15:22:56;21.00;1.00
46492;DHT22;32206;51.446;6.792;2022-10-31T15:25:23;20.90;1.00
46492;DHT22;32206;51.446;6.792;2022-10-31T15:27:51;20.90;5.00
46492;DHT22;32206;51.446;6.792;2022-10-31T15:32:48;20.80;1.00
46492;DHT22;32206;51.446;6.792;2022-10-31T15:35:30;20.80;1.00
46492;DHT22;32206;51.446;6.792;2022-10-31T15:37:58;20.60;99.90
46492;DHT22;32206;51.446;6.792;2022-10-31T15:40:26;20.60;99.90
46492;DHT22;32206;51.446;6.792;2022-10-31T15:45:23;20.70;1.00
46492;DHT22;32206;51.446;6.792;2022-10-31T15:48:13;20.40;25.60
46492;DHT22;32206;51.446;6.792;2022-10-31T15:50:50;20.40;99.90
46492;DHT22;32206;51.446;6.792;2022-10-31T15:54:03;20.40;99.90
46492;DHT22;32206;51.446;6.792;2022-10-31T15:56:10;20.40;99.90
46492;DHT22;32206;51.446;6.792;2022-10-31T15:58:43;20.20;1.00
46492;DHT22;32206;51.446;6.792;2022-10-31T16:01:23;20.10;99.90
46492;DHT22;32206;51.446;6.792;2022-10-31T16:06:24;20.00;99.90
46492;DHT22;32206;51.446;6.792;2022-10-31T16:08:50;20.00;11.70
46492;DHT22;32206;51.446;6.792;2022-10-31T16:16:22;19.90;99.90
46492;DHT22;32206;51.446;6.792;2022-10-31T16:18:49;19.90;99.90
46492;DHT22;32206;51.446;6.792;2022-10-31T16:21:15;19.80;1.00
46492;DHT22;32206;51.446;6.792;2022-10-31T16:23:52;19.70;1.00
46492;DHT22;32206;51.446;6.792;2022-10-31T16:26:19;19.80;1.00
46492;DHT22;32206;51.446;6.792;2022-10-31T16:28:52;19.60;92.00
46492;DHT22;32206;51.446;6.792;2022-10-31T16:31:30;19.70;99.90
46492;DHT22;32206;51.446;6.792;2022-10-31T16:36:33;19.40;99.90
46492;DHT22;32206;51.446;6.792;2022-10-31T16:39:00;19.30;99.90
46492;DHT22;32206;51.446;6.792;2022-10-31T16:41:26;19.30;99.90
46492;DHT22;32206;51.446;6.792;2022-10-31T16:43:52;19.20;99.90
46492;DHT22;32206;51.446;6.792;2022-10-31T16:46:24;19.20;99.90
46492;DHT22;32206;51.446;6.792;2022-10-31T16:48:50;19.10;1.00
46492;DHT22;32206;51.446;6.792;2022-10-31T16:51:16;19.00;1.00
46492;DHT22;32206;51.446;6.792;2022-10-31T16:53:41;19.00;1.00
46492;DHT22;32206;51.446;6.792;2022-10-31T16:56:16;18.90;1.00
46492;DHT22;32206;51.446;6.792;2022-10-31T16:58:43;18.80;1.00
46492;DHT22;32206;51.446;6.792;2022-10-31T17:01:10;18.80;1.00
46492;DHT22;32206;51.446;6.792;2022-10-31T17:03:37;18.70;1.00
46492;DHT22;32206;51.446;6.792;2022-10-31T17:06:03;18.60;1.00
46492;DHT22;32206;51.446;6.792;2022-10-31T17:08:29;18.50;1.00
46492;DHT22;32206;51.446;6.792;2022-10-31T17:10:56;18.40;1.00
46492;DHT22;32206;51.446;6.792;2022-10-31T17:13:25;18.40;1.00
46492;DHT22;32206;51.446;6.792;2022-10-31T17:15:54;18.40;1.00
46492;DHT22;32206;51.446;6.792;2022-10-31T17:18:20;18.40;1.00
46492;DHT22;32206;51.446;6.792;2022-10-31T17:20:46;18.40;1.00
46492;DHT22;32206;51.446;6.792;2022-10-31T17:23:14;18.40;1.00
46492;DHT22;32206;51.446;6.792;2022-10-31T17:25:40;18.40;1.00
46492;DHT22;32206;51.446;6.792;2022-10-31T17:28:07;18.40;99.90
46492;DHT22;32206;51.446;6.792;2022-10-31T17:30:35;18.50;1.00
46492;DHT22;32206;51.446;6.792;2022-10-31T17:33:02;18.40;1.00
46492;DHT22;32206;51.446;6.792;2022-10-31T17:35:27;18.50;1.00
46492;DHT22;32206;51.446;6.792;2022-10-31T17:37:53;18.50;1.00
46492;DHT22;32206;51.446;6.792;2022-10-31T17:40:20;18.50;99.90
46492;DHT22;32206;51.446;6.792;2022-10-31T17:42:50;18.60;99.90
46492;DHT22;32206;51.446;6.792;2022-10-31T17:45:16;18.60;99.90
46492;DHT22;32206;51.446;6.792;2022-10-31T17:47:42;18.60;6.70
46492;DHT22;32206;51.446;6.792;2022-10-31T17:50:08;18.60;1.00
46492;DHT22;32206;51.446;6.792;2022-10-31T17:52:33;18.60;1.00
46492;DHT22;32206;51.446;6.792;2022-10-31T17:54:59;18.60;1.00
46492;DHT22;32206;51.446;6.792;2022-10-31T17:57:25;18.60;99.90
46492;DHT22;32206;51.446;6.792;2022-10-31T17:59:50;18.70;99.90
46492;DHT22;32206;51.446;6.792;2022-10-31T18:02:16;18.70;99.90
46492;DHT22;32206;51.446;6.792;2022-10-31T18:04:41;18.70;99.90
46492;DHT22;32206;51.446;6.792;2022-10-31T18:07:07;18.60;99.90
46492;DHT22;32206;51.446;6.792;2022-10-31T18:09:33;18.70;99.90
46492;DHT22;32206;51.446;6.792;2022-10-31T18:11:59;18.70;99.90
46492;DHT22;32206;51.446;6.792;2022-10-31T18:14:24;18.70;30.30
46492;DHT22;32206;51.446;6.792;2022-10-31T18:16:50;18.70;99.90
46492;DHT22;32206;51.446;6.792;2022-10-31T18:19:16;18.70;99.90
46492;DHT22;32206;51.446;6.792;2022-10-31T18:21:43;18.70;99.90
46492;DHT22;32206;51.446;6.792;2022-10-31T18:24:09;18.70;99.90